Weather at Darchula Airport

Public forecast

Using degrees Celsius for public forecast. Weather courtesy of forecast.io.

Closest aviation weather report (METAR) to Darchula Airport

Report is more than 6 hours old.

Closest report is Pantnagar Airport, 68.0 nm (125.9 km) SW. Retrieved 2020/09/25 07:00 UTC (19 hours ago):

VIPT 250700Z 29005KT 5000 BR NSC 29/25 Q1004

Closest aviation forecast (TAF) to Darchula Airport

Forecast is more than 12 hours old.

Closest forecast is Pantnagar Airport, 68.0 nm (125.9 km) SW. Retrieved 2016/07/10 06:00 UTC (4 years ago):

TAF VIPT 100500Z 1006/1015 24005KT 4000 HZ FEW040 SCT100 TEMPO 1010/1015 2000 -TSRA SCT030 FEW035CB BKN090